• Join FlightAware (Why Join?)
  • Login
  • US Flag 
12:42AM EDT


 

Airport Tracker/Info


-or-


 

Live Flight TrackerFlight Track Log ✈ UAL3589 ✈ 14-Oct-2013 ✈ KALB - KEWR

Flight Track Log - Related Links

Times and Time Zones

All times are in EDT time to prevent confusion due to time zone crossing. See the UAL3589 flight status page for this flight to view local times or setup timezone preferences in your user account.

Time Position Orientation Groundspeed Altitude Reporting Facility
EDT Latitude Longitude Course Direction KTS MPH feet Rate Location/Type
09:19AM 42.6922 -73.8131 211° Southwest 165 190 2,000  Level Boston Center
09:19AM 42.6858 -73.8183 211° Southwest 175 201 2,100 1,140 Climbing Boston Center
09:20AM 42.6500 -73.8656 224° Southwest 193 222 3,300 1,140 Climbing Boston Center
09:21AM 42.6117 -73.9128 222° Southwest 190 219 4,500 1,140 Climbing Boston Center
09:22AM 42.5633 -73.9425 204° Southwest 189 217 5,700 1,080 Climbing Boston Center
09:23AM 42.5150 -73.9753 207° Southwest 193 222 6,800 1,140 Climbing Boston Center
09:24AM 42.4750 -74.0053 209° Southwest 200 230 7,800 1,260 Climbing Boston Center
09:24AM 42.4686 -74.0133 223° Southwest 197 227 8,100 1,260 Climbing Boston Center
09:25AM 42.4289 -74.0378 204° Southwest 200 230 9,100 1,020 Climbing Boston Center
09:26AM 42.3825 -74.0731 209° Southwest 200 230 10,000 420 Climbing Boston Center
09:27AM 42.3256 -74.1194 211° Southwest 227 261 10,000  Level Boston Center
09:28AM 42.2644 -74.1625 208° Southwest 251 289 10,000  Level Boston Center
09:29AM 42.1969 -74.2142 210° Southwest 269 310 10,000  Level Boston Center
09:30AM 42.1294 -74.2597 207° Southwest 269 310 10,000  Level Boston Center
09:31AM 42.0642 -74.2969 203° Southwest 262 302 10,000  Level Boston Center
09:32AM 41.9928 -74.3283 198° South 262 302 10,000  Level Boston Center
09:33AM 41.9236 -74.3597 199° South 267 307 10,000  Level Boston Center
09:34AM 41.8542 -74.3911 199° South 267 307 10,000  Level Boston Center
09:35AM 41.7850 -74.4197 197° South 272 313 10,000 -240 Level Boston Center
09:36AM 41.7156 -74.4564 202° Southwest 267 307 9,600 -960 Descending Boston Center
09:37AM 41.6419 -74.4875 198° South 279 321 8,200 -1,320 Descending Boston Center
09:38AM 41.5706 -74.5211 199° South 279 321 7,100 -660 Descending Boston Center
09:39AM 41.4992 -74.5522 198° South 274 315 6,900 -480 Descending Boston Center
09:40AM 41.3833 -74.6000 197° South 272 313 6,000 -360 Descending New York TRACON
09:41AM 41.3167 -74.6000 180° South 260 299 6,000  Level New York TRACON
09:42AM 41.2500 -74.5833 169° South 257 296 6,000  Level New York TRACON
09:43AM 41.1667 -74.5833 180° South 253 291 6,000  Level New York TRACON
09:44AM 41.1000 -74.5667 169° South 254 292 6,000  Level New York TRACON
09:45AM 41.0333 -74.5667 180° South 253 291 6,000  Level New York TRACON
09:46AM 40.9667 -74.5667 180° South 259 298 6,000  Level New York TRACON
09:47AM 40.9167 -74.6333 225° Southwest 250 288 6,000  Level New York TRACON
09:48AM 40.8667 -74.6833 217° Southwest 250 288 6,000  Level New York TRACON
09:49AM 40.8000 -74.6833 180° South 254 292 6,000 -180 Level New York TRACON
09:50AM 40.7333 -74.6333 150° Southeast 255 293 5,700 -540 Descending New York TRACON
09:51AM 40.6667 -74.5833 150° Southeast 263 303 5,000 -360 Descending New York TRACON
09:52AM 40.6167 -74.5167 135° Southeast 260 299 5,000  Level New York TRACON
09:53AM 40.5667 -74.4667 143° Southeast 255 293 5,000 -420 Level New York TRACON
09:54AM 40.5333 -74.4000 123° Southeast 222 255 4,200 -960 Descending New York TRACON
09:55AM 40.5333 -74.3167 90° East 215 247 3,100 -660 Descending New York TRACON
09:56AM 40.5500 -74.2500 72° East 209 241 2,900 -660 Descending New York TRACON
09:57AM 40.6000 -74.2333 14° North 199 229 1,900 -1,080 Descending New York TRACON
09:58AM 40.6333 -74.2000 37° Northeast 165 190 900 -1,020 Descending New York TRACON
10:00AM 40.6833 -74.1667 37° Northeast  Level FlightAware Approximate
10:07AM 40.6925 -74.1687 37° Northeast  Level Estimated